^^
Portofino Weather Station Historical Data
 
Daily Summary for August 30, 2026 Units:  English    Metric   Both
Daily Weekly Monthly Yearly
  Current: High: Low: Average:
Temperature: 74.7 °F 87.4 °F 69.9 °F 74.9 °F
Dew Point: 71.6 °F 75.5 °F 68.7 °F 71.3 °F
Humidity: 90% 97% 60.8% 89%
Wind Speed: 0mph 3.1mph 0mph 0.7mph
Wind Gust: 0mph 5.8mph - -
WindCalm - - ESE
Pressure: 30.14 in 30.23 in 30.12 in -
Precipitation: 0.00 in      
 
 
Tabular Data for August 30, 2026
Time Temperature Dew Point Pressure Wind Wind Speed Wind Gust Humidity Rainfall Rate (Hourly)
00:09 70.9 °F 69.7 °F 30.23 in ENE 0.4 mph 2.3 mph 96% 0.00 in
00:14 70.8 °F 69.6 °F 30.23 in ENE 0.2 mph 1.2 mph 96% 0.00 in
00:19 70.8 °F 69.6 °F 30.22 in Calm   1.2 mph 96% 0.00 in
00:24 70.7 °F 69.5 °F 30.22 in ENE 0.1 mph 1.2 mph 96% 0.00 in
00:29 70.6 °F 69.4 °F 30.22 in Calm     96% 0.00 in
00:34 70.5 °F 69.3 °F 30.22 in ENE 0.1 mph 1.2 mph 96% 0.00 in
00:39 70.4 °F 69.2 °F 30.22 in ENE 0.2 mph 1.2 mph 96% 0.00 in
00:44 70.4 °F 69.2 °F 30.22 in ENE 0.7 mph 1.2 mph 96% 0.00 in
00:49 70.3 °F 69.1 °F 30.21 in ENE 0.9 mph 1.2 mph 96% 0.00 in
00:54 70.3 °F 69.1 °F 30.21 in ENE 0.7 mph 1.2 mph 96% 0.00 in
00:59 70.2 °F 69 °F 30.21 in ENE 0.6 mph 1.2 mph 96% 0.00 in
01:04 70.1 °F 68.9 °F 30.21 in ENE 0.8 mph 1.2 mph 96% 0.00 in
01:09 70.1 °F 68.9 °F 30.21 in ENE 0.9 mph 2.3 mph 96% 0.00 in
01:14 70.1 °F 68.9 °F 30.21 in ENE 0.1 mph 1.2 mph 96% 0.00 in
01:19 70.2 °F 69 °F 30.21 in ENE 0.1 mph 1.2 mph 96% 0.00 in
01:24 70.3 °F 69.1 °F 30.21 in ENE 0.1 mph 1.2 mph 96% 0.00 in
01:29 70.2 °F 69 °F 30.21 in Calm     96% 0.00 in
01:34 70.1 °F 68.9 °F 30.20 in Calm   1.2 mph 96% 0.00 in
01:39 70.1 °F 68.9 °F 30.20 in ENE 0.6 mph 1.2 mph 96% 0.00 in
01:44 70.1 °F 68.9 °F 30.20 in Calm   1.2 mph 96% 0.00 in
01:49 70.1 °F 68.9 °F 30.20 in Calm     96% 0.00 in
01:54 70.1 °F 68.9 °F 30.20 in ENE 0.6 mph 1.2 mph 96% 0.00 in
01:59 70.1 °F 68.9 °F 30.20 in Calm   1.2 mph 96% 0.00 in
02:04 70.1 °F 68.9 °F 30.20 in Calm     96% 0.00 in
02:09 70 °F 68.8 °F 30.20 in Calm     96% 0.00 in
02:14 70 °F 68.8 °F 30.20 in Calm   1.2 mph 96% 0.00 in
02:19 70 °F 68.8 °F 30.20 in ENE 0.4 mph 1.2 mph 96% 0.00 in
02:24 70 °F 68.8 °F 30.20 in Calm     96% 0.00 in
02:29 69.9 °F 68.7 °F 30.20 in Calm     96% 0.00 in
02:34 69.9 °F 68.7 °F 30.20 in East 0.4 mph 1.2 mph 96% 0.00 in
02:39 70.1 °F 68.9 °F 30.20 in East 0.3 mph 2.3 mph 96% 0.00 in
02:44 70.3 °F 69.1 °F 30.21 in East 0.5 mph 2.3 mph 96% 0.00 in
02:49 70.4 °F 69.2 °F 30.21 in Calm   1.2 mph 96% 0.00 in
02:54 70.4 °F 69.2 °F 30.21 in East 0.1 mph 1.2 mph 96% 0.00 in
02:59 70.4 °F 69.2 °F 30.21 in NE 0.4 mph 2.3 mph 96% 0.00 in
03:04 70.4 °F 69.2 °F 30.20 in NE 0.3 mph 2.3 mph 96% 0.00 in
03:09 70.5 °F 69.3 °F 30.20 in East 0.6 mph 2.3 mph 96% 0.00 in
03:14 70.7 °F 69.5 °F 30.20 in East 0.5 mph 2.3 mph 96% 0.00 in
03:19 70.9 °F 69.7 °F 30.20 in East 0.6 mph 2.3 mph 96.2% 0.00 in
03:24 71 °F 70 °F 30.20 in NE 0.1 mph 1.2 mph 96.8% 0.00 in
03:29 71.1 °F 70.2 °F 30.20 in ENE 0.7 mph 2.3 mph 97% 0.00 in
03:34 71.2 °F 70.3 °F 30.20 in NE 0.4 mph 2.3 mph 97% 0.00 in
03:39 71.3 °F 70.4 °F 30.20 in Calm   1.2 mph 97% 0.00 in
03:44 71.3 °F 70.4 °F 30.20 in ENE 0.4 mph 1.2 mph 97% 0.00 in
03:49 71.3 °F 70.1 °F 30.20 in ENE 1.2 mph 2.3 mph 96.1% 0.00 in
03:54 71.3 °F 70.1 °F 30.20 in NE 1.2 mph 3.5 mph 96% 0.00 in
03:59 71.3 °F 70.1 °F 30.20 in NE 1 mph 3.5 mph 96% 0.00 in
04:04 71.3 °F 70.1 °F 30.20 in SE 0.7 mph 2.3 mph 96.3% 0.00 in
04:09 71.2 °F 70.3 °F 30.20 in SE 0.8 mph 2.3 mph 97% 0.00 in
04:14 71.2 °F 70.3 °F 30.20 in SE 0.3 mph 1.2 mph 97% 0.00 in
04:19 71.1 °F 70.2 °F 30.19 in Calm     97% 0.00 in
04:24 71 °F 70.1 °F 30.19 in Calm     97% 0.00 in
04:29 71 °F 70.1 °F 30.19 in ENE 0.6 mph 2.3 mph 97% 0.00 in
04:34 71 °F 70.1 °F 30.19 in NE 1.1 mph 2.3 mph 97% 0.00 in
04:39 71 °F 70.1 °F 30.19 in NE 0.8 mph 2.3 mph 97% 0.00 in
04:44 71 °F 70.1 °F 30.19 in NE 0.2 mph 2.3 mph 97% 0.00 in
04:49 71 °F 69.9 °F 30.18 in Calm   1.2 mph 96.6% 0.00 in
04:54 70.9 °F 69.8 °F 30.18 in Calm   1.2 mph 96.2% 0.00 in
04:59 70.9 °F 69.8 °F 30.19 in Calm   1.2 mph 96.3% 0.00 in
05:04 70.9 °F 69.8 °F 30.19 in Calm     96.3% 0.00 in
05:09 70.9 °F 70 °F 30.19 in NE 0.3 mph 2.3 mph 97% 0.00 in
05:14 71 °F 70.1 °F 30.19 in NE 0.6 mph 2.3 mph 97% 0.00 in
05:19 71 °F 70.1 °F 30.19 in NE 0.4 mph 2.3 mph 97% 0.00 in
05:24 71.1 °F 70.2 °F 30.19 in NE 1.4 mph 2.3 mph 97% 0.00 in
05:29 71.1 °F 70.2 °F 30.19 in NE 0.6 mph 2.3 mph 97% 0.00 in
05:34 71.1 °F 70.2 °F 30.19 in ENE 1.8 mph 3.5 mph 97% 0.00 in
05:39 71.1 °F 70.2 °F 30.19 in ENE 1.5 mph 3.5 mph 97% 0.00 in
05:44 71.1 °F 70.2 °F 30.20 in NE 1.7 mph 3.5 mph 97% 0.00 in
05:49 71.1 °F 70.2 °F 30.20 in NE 1.7 mph 3.5 mph 97% 0.00 in
05:54 71.2 °F 70.3 °F 30.20 in ENE 1.9 mph 4.6 mph 97% 0.00 in
05:59 71.1 °F 70.2 °F 30.20 in ENE 2 mph 3.5 mph 97% 0.00 in
06:04 71.1 °F 70.2 °F 30.20 in ENE 1.1 mph 3.5 mph 97% 0.00 in
06:09 71.1 °F 70.2 °F 30.20 in NE 1.6 mph 3.5 mph 97% 0.00 in
06:14 71.1 °F 70.2 °F 30.20 in ENE 0.5 mph 2.3 mph 97% 0.00 in
06:19 71.1 °F 70.2 °F 30.20 in ENE 0.1 mph 1.2 mph 97% 0.00 in
06:24 71 °F 70.1 °F 30.20 in Calm   1.2 mph 97% 0.00 in
06:29 71 °F 70.1 °F 30.21 in ESE 0.8 mph 2.3 mph 97% 0.00 in
06:34 71 °F 70.1 °F 30.21 in SE 0.5 mph 2.3 mph 97% 0.00 in
06:39 71 °F 70.1 °F 30.21 in ESE 0.6 mph 2.3 mph 97% 0.00 in
06:44 71 °F 70.1 °F 30.21 in ENE 0.4 mph 2.3 mph 97% 0.00 in
06:49 71 °F 70.1 °F 30.21 in NE 1.7 mph 3.5 mph 97% 0.00 in
06:54 71 °F 70.1 °F 30.21 in ENE 1.4 mph 2.3 mph 97% 0.00 in
06:59 71 °F 70.1 °F 30.21 in NNE 1.3 mph 3.5 mph 97% 0.00 in
07:04 71 °F 70.1 °F 30.21 in ENE 0.9 mph 3.5 mph 97% 0.00 in
07:09 71 °F 70.1 °F 30.21 in East 1 mph 2.3 mph 97% 0.00 in
07:14 71.1 °F 70.2 °F 30.22 in ESE 0.5 mph 2.3 mph 97% 0.00 in
07:19 71.2 °F 70.3 °F 30.22 in East 1.2 mph 2.3 mph 97% 0.00 in
07:24 71.2 °F 70.3 °F 30.22 in ENE 1.2 mph 3.5 mph 97% 0.00 in
07:29 71.3 °F 70.4 °F 30.22 in East 1.8 mph 3.5 mph 97% 0.00 in
07:34 71.3 °F 70.4 °F 30.22 in East 1.5 mph 2.3 mph 97% 0.00 in
07:39 71.5 °F 70.6 °F 30.22 in East 0.8 mph 2.3 mph 97% 0.00 in
07:44 71.5 °F 70.6 °F 30.22 in SE 1.5 mph 3.5 mph 97% 0.00 in
07:49 71.6 °F 70.7 °F 30.22 in ESE 1.3 mph 3.5 mph 97% 0.00 in
07:54 71.7 °F 70.8 °F 30.22 in SE 1.8 mph 3.5 mph 97% 0.00 in
07:59 71.8 °F 70.9 °F 30.23 in East 1.7 mph 4.6 mph 97% 0.00 in
08:04 71.8 °F 70.9 °F 30.23 in East 2 mph 3.5 mph 97% 0.00 in
08:09 71.9 °F 71 °F 30.23 in East 0.8 mph 2.3 mph 97% 0.00 in
08:14 72 °F 71.1 °F 30.23 in SE 0.8 mph 2.3 mph 97% 0.00 in
08:19 72.1 °F 71.2 °F 30.22 in East 0.3 mph 1.2 mph 97% 0.00 in
08:24 72.3 °F 71.4 °F 30.22 in NE 1.5 mph 3.5 mph 97% 0.00 in
08:29 72.3 °F 71.4 °F 30.22 in NE 2.3 mph 4.6 mph 97% 0.00 in
08:34 72.3 °F 71.4 °F 30.22 in East 3.1 mph 4.6 mph 97% 0.00 in
08:39 72.3 °F 71.4 °F 30.22 in East 2.2 mph 4.6 mph 97% 0.00 in
08:44 72.4 °F 71.5 °F 30.23 in ESE 1.4 mph 2.3 mph 97% 0.00 in
08:49 72.6 °F 71.7 °F 30.23 in ESE 1.3 mph 3.5 mph 97% 0.00 in
08:54 72.5 °F 71.6 °F 30.23 in ESE 1.5 mph 3.5 mph 97% 0.00 in
08:59 72.5 °F 71.6 °F 30.23 in ENE 2.1 mph 3.5 mph 97% 0.00 in
09:04 72.4 °F 71.5 °F 30.23 in ENE 2.2 mph 3.5 mph 97% 0.00 in
09:09 72.5 °F 71.6 °F 30.23 in ESE 1.3 mph 3.5 mph 97% 0.00 in
09:14 72.5 °F 71.6 °F 30.23 in ENE 2.1 mph 3.5 mph 97% 0.00 in
09:19 72.6 °F 71.7 °F 30.23 in NE 1.5 mph 3.5 mph 97% 0.00 in
09:20 72.6 °F 71.7 °F 30.23 in ENE 0.3 mph 2.3 mph 97% 0.00 in
16:14 87 °F 71.9 °F 30.14 in NW 1.3 mph 2.3 mph 61.1% 0.00 in
16:19 87.4 °F 73 °F 30.14 in WSW 2.3 mph 5.8 mph 62.6% 0.00 in
16:24 87.3 °F 72.4 °F 30.14 in SW 3 mph 5.8 mph 61.3% 0.00 in
16:29 87 °F 72.1 °F 30.14 in NW 0.4 mph 2.3 mph 61.5% 0.00 in
16:34 87.3 °F 72.1 °F 30.13 in SW 1.3 mph 3.5 mph 60.8% 0.00 in
16:39 87 °F 72 °F 30.13 in SSW 1.7 mph 3.5 mph 61.1% 0.00 in
16:44 86.3 °F 72.2 °F 30.13 in SSW 2.5 mph 3.5 mph 63% 0.00 in
16:49 85.5 °F 71.7 °F 30.13 in SSW 2 mph 3.5 mph 63.4% 0.00 in
16:54 85.2 °F 71.9 °F 30.13 in SSW 2.3 mph 3.5 mph 64.6% 0.00 in
16:59 84.9 °F 71.3 °F 30.13 in WSW 1.7 mph 3.5 mph 63.8% 0.00 in
17:04 84.7 °F 72 °F 30.13 in SSW 2.1 mph 3.5 mph 66% 0.00 in
17:09 84.4 °F 72.8 °F 30.13 in South 2 mph 3.5 mph 68.1% 0.00 in
17:14 84.3 °F 71.4 °F 30.13 in South 1.1 mph 2.3 mph 65.5% 0.00 in
17:19 84.2 °F 71.8 °F 30.13 in South 1.3 mph 2.3 mph 66.6% 0.00 in
17:24 84 °F 71.9 °F 30.13 in SSW 1.3 mph 2.3 mph 67.1% 0.00 in
17:29 83.9 °F 72.6 °F 30.14 in South 1 mph 2.3 mph 68.8% 0.00 in
17:34 83.9 °F 73.5 °F 30.14 in SSE 0.8 mph 1.2 mph 71% 0.00 in
17:39 83.9 °F 73.1 °F 30.14 in SSE 0.9 mph 2.3 mph 70% 0.00 in
17:44 83.9 °F 72.9 °F 30.14 in SSE 0.8 mph 2.3 mph 69.7% 0.00 in
17:49 83.7 °F 72.7 °F 30.14 in SSE 1 mph 2.3 mph 69.5% 0.00 in
17:54 83.7 °F 72.8 °F 30.14 in SSE 0.7 mph 2.3 mph 69.8% 0.00 in
17:59 83.6 °F 73.3 °F 30.14 in SE 0.6 mph 1.2 mph 71.2% 0.00 in
18:04 83.5 °F 73.7 °F 30.14 in ESE 0.4 mph 2.3 mph 72.6% 0.00 in
18:09 83.4 °F 73.7 °F 30.14 in SSW 0.3 mph 1.2 mph 72.7% 0.00 in
18:14 83.3 °F 74.4 °F 30.14 in SSW 0.5 mph 1.2 mph 74.7% 0.00 in
18:19 83.1 °F 74.9 °F 30.14 in SSE 0.7 mph 1.2 mph 76.4% 0.00 in
18:24 83 °F 75 °F 30.14 in SE 0.1 mph 2.3 mph 77% 0.00 in
18:29 82.9 °F 75 °F 30.14 in SE 0.2 mph 2.3 mph 77.1% 0.00 in
18:34 82.9 °F 74.7 °F 30.14 in Calm   1.2 mph 76.4% 0.00 in
18:39 82.7 °F 74 °F 30.14 in SE 0.2 mph 1.2 mph 74.8% 0.00 in
18:44 82.6 °F 74.6 °F 30.14 in South 0.5 mph 1.2 mph 76.7% 0.00 in
18:49 82.5 °F 74.9 °F 30.14 in Calm   2.3 mph 77.8% 0.00 in
18:54 82.5 °F 75 °F 30.14 in South 0.1 mph 2.3 mph 78.3% 0.00 in
18:59 82.5 °F 74.9 °F 30.14 in Calm   1.2 mph 77.9% 0.00 in
19:04 82.7 °F 75 °F 30.13 in SE 0.5 mph 2.3 mph 77.6% 0.00 in
19:09 82.8 °F 75.3 °F 30.13 in SE 0.6 mph 1.2 mph 78.2% 0.00 in
19:14 82.7 °F 75.4 °F 30.13 in SE 0.5 mph 1.2 mph 78.8% 0.00 in
19:19 82.4 °F 75.5 °F 30.12 in SE 0.1 mph 1.2 mph 79.9% 0.00 in
19:24 82.2 °F 75.2 °F 30.12 in Calm   1.2 mph 79.3% 0.00 in
19:29 82.2 °F 75 °F 30.13 in SSE 0.1 mph 2.3 mph 78.8% 0.00 in
19:34 82 °F 75.4 °F 30.13 in SSE 0.4 mph 2.3 mph 80.5% 0.00 in
19:39 81.3 °F 74.9 °F 30.13 in SSE 0.2 mph 1.2 mph 81% 0.00 in
19:44 80.7 °F 74.7 °F 30.13 in SSE 0.1 mph 1.2 mph 82% 0.00 in
19:49 80.2 °F 74.6 °F 30.13 in Calm   1.2 mph 83% 0.00 in
19:54 79.9 °F 74.3 °F 30.13 in SSE 0.3 mph 2.3 mph 83% 0.00 in
19:59 79.6 °F 74 °F 30.13 in Calm   2.3 mph 83% 0.00 in
20:04 79.3 °F 74 °F 30.12 in SSE 0.2 mph 2.3 mph 83.9% 0.00 in
20:09 78.9 °F 74 °F 30.12 in SSE 0.1 mph 1.2 mph 85% 0.00 in
20:14 78.4 °F 73.9 °F 30.13 in SSE 0.1 mph 2.3 mph 85.9% 0.00 in
20:19 78 °F 73.7 °F 30.13 in SSE 0.1 mph 1.2 mph 86.4% 0.00 in
20:24 77.6 °F 73.4 °F 30.13 in SSE 0.4 mph 1.2 mph 87% 0.00 in
20:29 77.2 °F 73 °F 30.13 in SSE 0.1 mph 2.3 mph 87% 0.00 in
20:34 77 °F 72.8 °F 30.12 in Calm     87% 0.00 in
20:39 76.9 °F 72.9 °F 30.12 in SSE 0.5 mph 2.3 mph 87.5% 0.00 in
20:44 76.7 °F 72.9 °F 30.12 in Calm   2.3 mph 88% 0.00 in
20:49 76.6 °F 72.9 °F 30.12 in SSE 0.7 mph 2.3 mph 88.4% 0.00 in
20:54 76.5 °F 73 °F 30.12 in North 0.5 mph 2.3 mph 89% 0.00 in
20:59 76.3 °F 72.8 °F 30.12 in Calm     89% 0.00 in
21:04 76.1 °F 72.6 °F 30.12 in Calm   2.3 mph 89% 0.00 in
21:09 75.8 °F 72.3 °F 30.12 in North 0.2 mph 2.3 mph 89% 0.00 in
21:14 75.6 °F 72.1 °F 30.13 in Calm   2.3 mph 89% 0.00 in
21:19 75.5 °F 72.2 °F 30.13 in Calm   1.2 mph 89.4% 0.00 in
21:24 75.3 °F 72.2 °F 30.13 in North 0.2 mph 2.3 mph 89.9% 0.00 in
21:29 75.1 °F 72 °F 30.13 in North 0.4 mph 1.2 mph 89.9% 0.00 in
21:34 74.9 °F 71.8 °F 30.13 in North 0.1 mph 1.2 mph 90% 0.00 in
21:39 74.8 °F 71.7 °F 30.13 in North 0.1 mph 1.2 mph 90% 0.00 in
21:44 74.7 °F 71.6 °F 30.14 in North 0.1 mph 2.3 mph 90% 0.00 in
21:49 74.7 °F 71.6 °F 30.14 in Calm     90% 0.00 in
Clayton, NC Weather
Compliments of Weather Underground - 2 mb

Free counters!